sensor_id;sensor_type;location;lat;lon;timestamp;P1;durP1;ratioP1;P2;durP2;ratioP2
74892;SDS011;63446;56.272;43.922;2023-08-06T00:01:57;20.40;;;9.13;;
74892;SDS011;63446;56.272;43.922;2023-08-06T00:04:22;23.17;;;9.77;;
74892;SDS011;63446;56.272;43.922;2023-08-06T00:06:48;22.35;;;9.32;;
74892;SDS011;63446;56.272;43.922;2023-08-06T00:09:14;17.45;;;8.73;;
74892;SDS011;63446;56.272;43.922;2023-08-06T00:11:40;24.73;;;9.70;;
74892;SDS011;63446;56.272;43.922;2023-08-06T00:14:06;16.35;;;9.30;;
74892;SDS011;63446;56.272;43.922;2023-08-06T00:16:32;17.35;;;9.52;;
74892;SDS011;63446;56.272;43.922;2023-08-06T00:18:59;22.57;;;9.27;;
74892;SDS011;63446;56.272;43.922;2023-08-06T00:21:26;18.38;;;9.05;;
74892;SDS011;63446;56.272;43.922;2023-08-06T00:23:51;15.85;;;8.52;;
74892;SDS011;63446;56.272;43.922;2023-08-06T00:26:18;19.75;;;9.55;;
74892;SDS011;63446;56.272;43.922;2023-08-06T00:28:43;20.77;;;9.03;;
74892;SDS011;63446;56.272;43.922;2023-08-06T00:31:09;17.90;;;9.55;;
74892;SDS011;63446;56.272;43.922;2023-08-06T00:33:35;24.27;;;10.10;;
74892;SDS011;63446;56.272;43.922;2023-08-06T00:36:02;19.33;;;9.88;;
74892;SDS011;63446;56.272;43.922;2023-08-06T00:38:28;20.85;;;9.27;;
74892;SDS011;63446;56.272;43.922;2023-08-06T00:40:54;19.70;;;9.90;;
74892;SDS011;63446;56.272;43.922;2023-08-06T00:43:20;18.23;;;8.83;;
74892;SDS011;63446;56.272;43.922;2023-08-06T00:45:45;18.23;;;10.45;;
74892;SDS011;63446;56.272;43.922;2023-08-06T00:48:12;19.27;;;9.37;;
74892;SDS011;63446;56.272;43.922;2023-08-06T00:50:38;18.88;;;9.15;;
74892;SDS011;63446;56.272;43.922;2023-08-06T00:53:04;16.23;;;9.15;;
74892;SDS011;63446;56.272;43.922;2023-08-06T00:55:31;18.10;;;8.95;;
74892;SDS011;63446;56.272;43.922;2023-08-06T00:57:57;18.52;;;9.65;;
74892;SDS011;63446;56.272;43.922;2023-08-06T01:00:23;16.60;;;8.30;;
74892;SDS011;63446;56.272;43.922;2023-08-06T01:02:50;21.67;;;9.30;;
74892;SDS011;63446;56.272;43.922;2023-08-06T01:05:15;16.45;;;8.93;;
74892;SDS011;63446;56.272;43.922;2023-08-06T01:13:11;18.15;;;9.13;;
74892;SDS011;63446;56.272;43.922;2023-08-06T01:15:49;16.25;;;9.10;;
74892;SDS011;63446;56.272;43.922;2023-08-06T01:18:19;18.20;;;9.38;;
74892;SDS011;63446;56.272;43.922;2023-08-06T01:20:45;17.55;;;9.45;;
74892;SDS011;63446;56.272;43.922;2023-08-06T01:23:11;19.90;;;8.97;;
74892;SDS011;63446;56.272;43.922;2023-08-06T01:25:43;19.50;;;9.23;;
74892;SDS011;63446;56.272;43.922;2023-08-06T01:31:10;19.30;;;9.88;;
74892;SDS011;63446;56.272;43.922;2023-08-06T01:33:48;17.53;;;8.67;;
74892;SDS011;63446;56.272;43.922;2023-08-06T01:36:16;16.30;;;9.40;;
74892;SDS011;63446;56.272;43.922;2023-08-06T01:38:44;18.73;;;9.27;;
74892;SDS011;63446;56.272;43.922;2023-08-06T01:41:10;17.58;;;9.68;;
74892;SDS011;63446;56.272;43.922;2023-08-06T01:43:36;19.95;;;9.73;;
74892;SDS011;63446;56.272;43.922;2023-08-06T01:46:02;21.50;;;9.97;;
74892;SDS011;63446;56.272;43.922;2023-08-06T01:48:28;17.02;;;9.40;;
74892;SDS011;63446;56.272;43.922;2023-08-06T01:50:54;17.98;;;9.38;;
74892;SDS011;63446;56.272;43.922;2023-08-06T01:53:19;17.20;;;9.50;;
74892;SDS011;63446;56.272;43.922;2023-08-06T01:55:48;18.67;;;9.80;;
74892;SDS011;63446;56.272;43.922;2023-08-06T01:58:15;21.77;;;9.32;;
74892;SDS011;63446;56.272;43.922;2023-08-06T02:00:41;18.07;;;9.17;;
74892;SDS011;63446;56.272;43.922;2023-08-06T02:03:07;16.58;;;9.30;;
74892;SDS011;63446;56.272;43.922;2023-08-06T02:05:32;16.98;;;9.73;;
74892;SDS011;63446;56.272;43.922;2023-08-06T02:07:59;21.07;;;9.13;;
74892;SDS011;63446;56.272;43.922;2023-08-06T02:10:24;15.95;;;9.07;;
74892;SDS011;63446;56.272;43.922;2023-08-06T02:12:50;15.30;;;9.07;;
74892;SDS011;63446;56.272;43.922;2023-08-06T02:15:16;18.50;;;9.02;;
74892;SDS011;63446;56.272;43.922;2023-08-06T02:17:43;18.92;;;9.07;;
74892;SDS011;63446;56.272;43.922;2023-08-06T02:20:29;18.00;;;9.25;;
74892;SDS011;63446;56.272;43.922;2023-08-06T02:22:54;16.20;;;9.73;;
74892;SDS011;63446;56.272;43.922;2023-08-06T02:25:20;19.30;;;11.75;;
74892;SDS011;63446;56.272;43.922;2023-08-06T02:27:46;16.63;;;9.60;;
74892;SDS011;63446;56.272;43.922;2023-08-06T02:30:12;19.70;;;10.00;;
74892;SDS011;63446;56.272;43.922;2023-08-06T02:32:38;17.35;;;9.93;;
74892;SDS011;63446;56.272;43.922;2023-08-06T02:35:05;17.90;;;9.90;;
74892;SDS011;63446;56.272;43.922;2023-08-06T02:37:33;14.65;;;9.50;;
74892;SDS011;63446;56.272;43.922;2023-08-06T02:40:00;18.25;;;9.90;;
74892;SDS011;63446;56.272;43.922;2023-08-06T02:42:26;14.60;;;9.80;;
74892;SDS011;63446;56.272;43.922;2023-08-06T02:44:52;15.45;;;9.85;;
74892;SDS011;63446;56.272;43.922;2023-08-06T02:47:21;16.75;;;10.45;;
74892;SDS011;63446;56.272;43.922;2023-08-06T02:49:47;18.05;;;10.60;;
74892;SDS011;63446;56.272;43.922;2023-08-06T02:52:14;17.70;;;11.07;;
74892;SDS011;63446;56.272;43.922;2023-08-06T02:54:40;17.35;;;10.95;;
74892;SDS011;63446;56.272;43.922;2023-08-06T02:57:06;20.63;;;10.88;;
74892;SDS011;63446;56.272;43.922;2023-08-06T02:59:33;21.20;;;12.63;;
74892;SDS011;63446;56.272;43.922;2023-08-06T03:02:06;21.50;;;14.77;;
74892;SDS011;63446;56.272;43.922;2023-08-06T03:04:51;25.70;;;14.63;;
74892;SDS011;63446;56.272;43.922;2023-08-06T03:07:20;20.92;;;13.27;;
74892;SDS011;63446;56.272;43.922;2023-08-06T03:09:53;17.48;;;13.50;;
74892;SDS011;63446;56.272;43.922;2023-08-06T03:12:19;18.67;;;13.95;;
74892;SDS011;63446;56.272;43.922;2023-08-06T03:14:47;21.15;;;15.48;;
74892;SDS011;63446;56.272;43.922;2023-08-06T03:17:14;23.90;;;16.00;;
74892;SDS011;63446;56.272;43.922;2023-08-06T03:19:40;22.27;;;16.35;;
74892;SDS011;63446;56.272;43.922;2023-08-06T03:22:06;25.77;;;16.73;;
74892;SDS011;63446;56.272;43.922;2023-08-06T03:24:34;26.25;;;16.90;;
74892;SDS011;63446;56.272;43.922;2023-08-06T03:27:00;26.45;;;17.60;;
74892;SDS011;63446;56.272;43.922;2023-08-06T03:29:27;23.97;;;17.17;;
74892;SDS011;63446;56.272;43.922;2023-08-06T03:31:55;21.60;;;16.58;;
74892;SDS011;63446;56.272;43.922;2023-08-06T03:34:21;22.67;;;17.95;;
74892;SDS011;63446;56.272;43.922;2023-08-06T03:36:49;20.52;;;17.33;;
74892;SDS011;63446;56.272;43.922;2023-08-06T03:39:15;22.93;;;17.53;;
74892;SDS011;63446;56.272;43.922;2023-08-06T03:41:41;21.40;;;18.02;;
74892;SDS011;63446;56.272;43.922;2023-08-06T03:44:07;23.87;;;20.17;;
74892;SDS011;63446;56.272;43.922;2023-08-06T03:46:33;25.92;;;19.30;;
74892;SDS011;63446;56.272;43.922;2023-08-06T03:49:02;24.27;;;20.38;;
74892;SDS011;63446;56.272;43.922;2023-08-06T03:51:28;23.63;;;20.52;;
74892;SDS011;63446;56.272;43.922;2023-08-06T03:53:55;24.47;;;21.87;;
74892;SDS011;63446;56.272;43.922;2023-08-06T03:56:22;26.65;;;21.95;;
74892;SDS011;63446;56.272;43.922;2023-08-06T03:58:49;26.45;;;23.15;;
74892;SDS011;63446;56.272;43.922;2023-08-06T04:01:15;25.27;;;22.75;;
74892;SDS011;63446;56.272;43.922;2023-08-06T04:03:43;28.95;;;23.95;;
74892;SDS011;63446;56.272;43.922;2023-08-06T04:06:11;25.67;;;23.07;;
74892;SDS011;63446;56.272;43.922;2023-08-06T04:08:37;29.77;;;26.75;;
74892;SDS011;63446;56.272;43.922;2023-08-06T04:11:03;28.63;;;26.00;;
74892;SDS011;63446;56.272;43.922;2023-08-06T04:13:29;27.75;;;25.23;;
74892;SDS011;63446;56.272;43.922;2023-08-06T04:16:04;29.65;;;26.65;;
74892;SDS011;63446;56.272;43.922;2023-08-06T04:18:32;29.97;;;27.13;;
74892;SDS011;63446;56.272;43.922;2023-08-06T04:20:58;29.63;;;26.73;;
74892;SDS011;63446;56.272;43.922;2023-08-06T04:23:25;30.73;;;27.80;;
74892;SDS011;63446;56.272;43.922;2023-08-06T04:25:56;30.23;;;27.33;;
74892;SDS011;63446;56.272;43.922;2023-08-06T04:28:25;30.10;;;27.05;;
74892;SDS011;63446;56.272;43.922;2023-08-06T04:30:52;29.90;;;26.93;;
74892;SDS011;63446;56.272;43.922;2023-08-06T04:33:19;29.70;;;27.00;;
74892;SDS011;63446;56.272;43.922;2023-08-06T04:35:46;29.67;;;27.15;;
74892;SDS011;63446;56.272;43.922;2023-08-06T04:38:13;28.55;;;26.25;;
74892;SDS011;63446;56.272;43.922;2023-08-06T04:40:39;28.55;;;26.33;;
74892;SDS011;63446;56.272;43.922;2023-08-06T04:43:06;26.77;;;24.47;;
74892;SDS011;63446;56.272;43.922;2023-08-06T04:45:34;26.92;;;24.38;;
74892;SDS011;63446;56.272;43.922;2023-08-06T04:48:00;26.95;;;24.70;;
74892;SDS011;63446;56.272;43.922;2023-08-06T04:50:25;28.77;;;26.58;;
74892;SDS011;63446;56.272;43.922;2023-08-06T04:52:52;28.17;;;25.87;;
74892;SDS011;63446;56.272;43.922;2023-08-06T04:55:18;30.27;;;27.90;;
74892;SDS011;63446;56.272;43.922;2023-08-06T04:57:45;31.75;;;29.42;;
74892;SDS011;63446;56.272;43.922;2023-08-06T05:00:12;31.80;;;29.40;;
74892;SDS011;63446;56.272;43.922;2023-08-06T05:02:38;31.45;;;28.95;;
74892;SDS011;63446;56.272;43.922;2023-08-06T05:05:04;32.70;;;30.40;;
74892;SDS011;63446;56.272;43.922;2023-08-06T05:07:31;34.63;;;32.28;;
74892;SDS011;63446;56.272;43.922;2023-08-06T05:09:57;31.30;;;29.20;;
74892;SDS011;63446;56.272;43.922;2023-08-06T05:12:23;32.08;;;29.98;;
74892;SDS011;63446;56.272;43.922;2023-08-06T05:14:49;31.57;;;29.63;;
74892;SDS011;63446;56.272;43.922;2023-08-06T05:17:15;32.03;;;30.00;;
74892;SDS011;63446;56.272;43.922;2023-08-06T05:19:41;33.72;;;31.70;;
74892;SDS011;63446;56.272;43.922;2023-08-06T05:22:07;35.25;;;32.63;;
74892;SDS011;63446;56.272;43.922;2023-08-06T05:24:33;33.10;;;31.10;;
74892;SDS011;63446;56.272;43.922;2023-08-06T05:26:59;34.38;;;32.22;;
74892;SDS011;63446;56.272;43.922;2023-08-06T05:29:25;35.37;;;33.23;;
74892;SDS011;63446;56.272;43.922;2023-08-06T05:31:52;36.28;;;34.17;;
74892;SDS011;63446;56.272;43.922;2023-08-06T05:34:18;35.25;;;33.13;;
74892;SDS011;63446;56.272;43.922;2023-08-06T05:36:45;33.85;;;31.63;;
74892;SDS011;63446;56.272;43.922;2023-08-06T05:39:11;32.67;;;30.73;;
74892;SDS011;63446;56.272;43.922;2023-08-06T05:41:37;34.17;;;31.77;;
74892;SDS011;63446;56.272;43.922;2023-08-06T05:44:02;35.45;;;33.17;;
74892;SDS011;63446;56.272;43.922;2023-08-06T05:46:28;34.75;;;32.63;;
74892;SDS011;63446;56.272;43.922;2023-08-06T05:48:54;34.00;;;31.87;;
74892;SDS011;63446;56.272;43.922;2023-08-06T05:51:39;35.42;;;32.90;;
74892;SDS011;63446;56.272;43.922;2023-08-06T05:54:11;36.42;;;34.10;;
74892;SDS011;63446;56.272;43.922;2023-08-06T05:56:37;35.97;;;33.67;;
74892;SDS011;63446;56.272;43.922;2023-08-06T05:59:03;40.67;;;38.28;;
74892;SDS011;63446;56.272;43.922;2023-08-06T06:01:29;32.30;;;30.30;;
74892;SDS011;63446;56.272;43.922;2023-08-06T06:03:56;27.88;;;25.85;;
74892;SDS011;63446;56.272;43.922;2023-08-06T06:06:22;23.67;;;22.10;;
74892;SDS011;63446;56.272;43.922;2023-08-06T06:08:48;17.60;;;16.40;;
74892;SDS011;63446;56.272;43.922;2023-08-06T06:11:14;14.13;;;12.93;;
74892;SDS011;63446;56.272;43.922;2023-08-06T06:13:40;10.27;;;9.37;;
74892;SDS011;63446;56.272;43.922;2023-08-06T06:16:06;9.65;;;8.75;;
74892;SDS011;63446;56.272;43.922;2023-08-06T06:18:32;12.45;;;7.57;;
74892;SDS011;63446;56.272;43.922;2023-08-06T06:20:58;7.70;;;6.90;;
74892;SDS011;63446;56.272;43.922;2023-08-06T06:23:24;7.53;;;5.90;;
74892;SDS011;63446;56.272;43.922;2023-08-06T06:25:50;6.85;;;5.72;;
74892;SDS011;63446;56.272;43.922;2023-08-06T06:28:19;8.27;;;5.40;;
74892;SDS011;63446;56.272;43.922;2023-08-06T06:30:45;7.07;;;5.38;;
74892;SDS011;63446;56.272;43.922;2023-08-06T06:33:11;7.77;;;4.53;;
74892;SDS011;63446;56.272;43.922;2023-08-06T06:35:36;5.68;;;4.10;;
74892;SDS011;63446;56.272;43.922;2023-08-06T06:38:03;8.40;;;3.83;;
74892;SDS011;63446;56.272;43.922;2023-08-06T06:40:29;7.30;;;3.90;;
74892;SDS011;63446;56.272;43.922;2023-08-06T06:42:55;5.55;;;3.72;;
74892;SDS011;63446;56.272;43.922;2023-08-06T06:45:20;7.33;;;4.33;;
74892;SDS011;63446;56.272;43.922;2023-08-06T06:47:47;5.78;;;3.90;;
74892;SDS011;63446;56.272;43.922;2023-08-06T06:50:13;6.80;;;3.83;;
74892;SDS011;63446;56.272;43.922;2023-08-06T06:52:39;4.63;;;3.00;;
74892;SDS011;63446;56.272;43.922;2023-08-06T06:55:05;9.48;;;3.45;;
74892;SDS011;63446;56.272;43.922;2023-08-06T06:57:32;7.43;;;3.85;;
74892;SDS011;63446;56.272;43.922;2023-08-06T06:59:57;6.63;;;3.90;;
74892;SDS011;63446;56.272;43.922;2023-08-06T07:02:23;6.03;;;3.40;;
74892;SDS011;63446;56.272;43.922;2023-08-06T07:04:49;9.93;;;4.40;;
74892;SDS011;63446;56.272;43.922;2023-08-06T07:07:16;6.28;;;3.72;;
74892;SDS011;63446;56.272;43.922;2023-08-06T07:09:42;8.40;;;3.53;;
74892;SDS011;63446;56.272;43.922;2023-08-06T07:12:08;5.95;;;3.65;;
74892;SDS011;63446;56.272;43.922;2023-08-06T07:14:34;7.10;;;3.55;;
74892;SDS011;63446;56.272;43.922;2023-08-06T07:17:00;8.07;;;4.15;;
74892;SDS011;63446;56.272;43.922;2023-08-06T07:19:27;7.93;;;3.78;;
74892;SDS011;63446;56.272;43.922;2023-08-06T07:21:53;6.77;;;3.40;;
74892;SDS011;63446;56.272;43.922;2023-08-06T07:24:19;6.10;;;3.67;;
74892;SDS011;63446;56.272;43.922;2023-08-06T07:26:45;6.32;;;3.70;;
74892;SDS011;63446;56.272;43.922;2023-08-06T07:29:10;7.60;;;3.73;;
74892;SDS011;63446;56.272;43.922;2023-08-06T07:31:36;8.90;;;4.40;;
74892;SDS011;63446;56.272;43.922;2023-08-06T07:34:02;6.67;;;3.90;;
74892;SDS011;63446;56.272;43.922;2023-08-06T07:36:28;8.35;;;3.90;;
74892;SDS011;63446;56.272;43.922;2023-08-06T07:38:54;6.88;;;3.80;;
74892;SDS011;63446;56.272;43.922;2023-08-06T07:41:22;6.95;;;3.60;;
74892;SDS011;63446;56.272;43.922;2023-08-06T07:43:48;9.70;;;3.65;;
74892;SDS011;63446;56.272;43.922;2023-08-06T07:46:15;8.70;;;3.87;;
74892;SDS011;63446;56.272;43.922;2023-08-06T07:48:41;5.47;;;3.78;;
74892;SDS011;63446;56.272;43.922;2023-08-06T07:51:07;8.87;;;4.47;;
74892;SDS011;63446;56.272;43.922;2023-08-06T07:53:32;11.23;;;4.30;;
74892;SDS011;63446;56.272;43.922;2023-08-06T07:55:58;7.85;;;4.50;;
74892;SDS011;63446;56.272;43.922;2023-08-06T07:58:24;8.25;;;4.45;;
74892;SDS011;63446;56.272;43.922;2023-08-06T08:00:51;7.83;;;4.43;;
74892;SDS011;63446;56.272;43.922;2023-08-06T08:03:18;8.02;;;4.70;;
74892;SDS011;63446;56.272;43.922;2023-08-06T08:05:45;10.30;;;5.30;;
74892;SDS011;63446;56.272;43.922;2023-08-06T08:08:11;8.13;;;5.35;;
74892;SDS011;63446;56.272;43.922;2023-08-06T08:10:37;12.90;;;4.90;;
74892;SDS011;63446;56.272;43.922;2023-08-06T08:13:04;10.60;;;4.60;;
74892;SDS011;63446;56.272;43.922;2023-08-06T08:15:30;10.50;;;5.38;;
74892;SDS011;63446;56.272;43.922;2023-08-06T08:17:58;9.23;;;4.25;;
74892;SDS011;63446;56.272;43.922;2023-08-06T08:20:24;7.55;;;3.85;;
74892;SDS011;63446;56.272;43.922;2023-08-06T08:22:50;7.65;;;3.83;;
74892;SDS011;63446;56.272;43.922;2023-08-06T08:25:16;8.00;;;3.80;;
74892;SDS011;63446;56.272;43.922;2023-08-06T08:27:43;7.43;;;3.42;;
74892;SDS011;63446;56.272;43.922;2023-08-06T08:30:08;7.32;;;3.20;;
74892;SDS011;63446;56.272;43.922;2023-08-06T08:32:35;9.27;;;3.50;;
74892;SDS011;63446;56.272;43.922;2023-08-06T08:35:01;5.20;;;3.13;;
74892;SDS011;63446;56.272;43.922;2023-08-06T08:37:29;6.18;;;3.60;;
74892;SDS011;63446;56.272;43.922;2023-08-06T08:39:55;6.97;;;2.88;;
74892;SDS011;63446;56.272;43.922;2023-08-06T08:42:21;9.70;;;2.67;;
74892;SDS011;63446;56.272;43.922;2023-08-06T08:44:47;5.60;;;2.77;;
74892;SDS011;63446;56.272;43.922;2023-08-06T08:47:14;6.72;;;2.80;;
74892;SDS011;63446;56.272;43.922;2023-08-06T08:49:42;7.22;;;2.83;;
74892;SDS011;63446;56.272;43.922;2023-08-06T08:52:10;6.10;;;2.50;;
74892;SDS011;63446;56.272;43.922;2023-08-06T08:54:38;4.10;;;2.70;;
74892;SDS011;63446;56.272;43.922;2023-08-06T08:57:05;5.53;;;3.45;;
74892;SDS011;63446;56.272;43.922;2023-08-06T08:59:32;8.50;;;3.80;;
74892;SDS011;63446;56.272;43.922;2023-08-06T09:02:00;5.55;;;3.35;;
74892;SDS011;63446;56.272;43.922;2023-08-06T09:04:27;7.13;;;2.73;;
74892;SDS011;63446;56.272;43.922;2023-08-06T09:06:58;10.82;;;3.15;;
74892;SDS011;63446;56.272;43.922;2023-08-06T09:09:26;5.93;;;3.03;;
74892;SDS011;63446;56.272;43.922;2023-08-06T09:11:58;7.40;;;2.50;;
74892;SDS011;63446;56.272;43.922;2023-08-06T09:14:28;5.15;;;2.55;;
74892;SDS011;63446;56.272;43.922;2023-08-06T09:16:54;5.90;;;2.60;;
74892;SDS011;63446;56.272;43.922;2023-08-06T09:19:20;5.80;;;2.20;;
74892;SDS011;63446;56.272;43.922;2023-08-06T09:21:46;4.22;;;2.30;;
74892;SDS011;63446;56.272;43.922;2023-08-06T09:24:16;6.10;;;2.55;;
74892;SDS011;63446;56.272;43.922;2023-08-06T09:26:43;5.83;;;2.80;;
74892;SDS011;63446;56.272;43.922;2023-08-06T09:29:11;6.63;;;2.85;;
74892;SDS011;63446;56.272;43.922;2023-08-06T09:31:41;5.13;;;2.72;;
74892;SDS011;63446;56.272;43.922;2023-08-06T09:34:14;6.53;;;2.75;;
74892;SDS011;63446;56.272;43.922;2023-08-06T09:36:49;6.35;;;2.30;;
74892;SDS011;63446;56.272;43.922;2023-08-06T09:39:20;3.53;;;2.30;;
74892;SDS011;63446;56.272;43.922;2023-08-06T09:41:48;4.13;;;2.30;;
74892;SDS011;63446;56.272;43.922;2023-08-06T09:44:17;6.75;;;2.40;;
74892;SDS011;63446;56.272;43.922;2023-08-06T09:46:48;3.58;;;2.08;;
74892;SDS011;63446;56.272;43.922;2023-08-06T09:49:17;5.30;;;2.20;;
74892;SDS011;63446;56.272;43.922;2023-08-06T09:51:44;3.83;;;1.97;;
74892;SDS011;63446;56.272;43.922;2023-08-06T09:54:14;4.55;;;2.30;;
74892;SDS011;63446;56.272;43.922;2023-08-06T09:56:42;4.93;;;1.73;;
74892;SDS011;63446;56.272;43.922;2023-08-06T09:59:08;5.53;;;2.05;;
74892;SDS011;63446;56.272;43.922;2023-08-06T10:01:36;3.83;;;1.90;;
74892;SDS011;63446;56.272;43.922;2023-08-06T10:04:04;3.83;;;1.93;;
74892;SDS011;63446;56.272;43.922;2023-08-06T10:06:34;6.70;;;2.78;;
74892;SDS011;63446;56.272;43.922;2023-08-06T10:09:02;6.22;;;2.40;;
74892;SDS011;63446;56.272;43.922;2023-08-06T10:11:32;8.75;;;2.70;;
74892;SDS011;63446;56.272;43.922;2023-08-06T10:14:00;3.53;;;1.98;;
74892;SDS011;63446;56.272;43.922;2023-08-06T10:16:31;4.90;;;2.03;;
74892;SDS011;63446;56.272;43.922;2023-08-06T10:18:58;4.25;;;1.95;;
74892;SDS011;63446;56.272;43.922;2023-08-06T10:21:25;3.65;;;2.00;;
74892;SDS011;63446;56.272;43.922;2023-08-06T10:23:54;5.75;;;2.05;;
74892;SDS011;63446;56.272;43.922;2023-08-06T10:26:20;6.90;;;2.53;;
74892;SDS011;63446;56.272;43.922;2023-08-06T10:28:50;4.03;;;1.70;;
74892;SDS011;63446;56.272;43.922;2023-08-06T10:31:16;6.18;;;2.28;;
74892;SDS011;63446;56.272;43.922;2023-08-06T10:33:42;4.05;;;2.10;;
74892;SDS011;63446;56.272;43.922;2023-08-06T10:36:09;4.03;;;2.17;;
74892;SDS011;63446;56.272;43.922;2023-08-06T10:38:46;3.40;;;1.90;;
74892;SDS011;63446;56.272;43.922;2023-08-06T10:41:15;4.38;;;2.20;;
74892;SDS011;63446;56.272;43.922;2023-08-06T10:44:08;4.90;;;2.20;;
74892;SDS011;63446;56.272;43.922;2023-08-06T10:46:36;4.72;;;2.45;;
74892;SDS011;63446;56.272;43.922;2023-08-06T10:49:03;6.03;;;1.93;;
74892;SDS011;63446;56.272;43.922;2023-08-06T10:51:30;3.40;;;1.90;;
74892;SDS011;63446;56.272;43.922;2023-08-06T10:53:56;3.58;;;1.70;;
74892;SDS011;63446;56.272;43.922;2023-08-06T10:56:24;4.13;;;1.90;;
74892;SDS011;63446;56.272;43.922;2023-08-06T10:58:53;4.07;;;1.90;;
74892;SDS011;63446;56.272;43.922;2023-08-06T11:01:22;5.80;;;1.90;;
74892;SDS011;63446;56.272;43.922;2023-08-06T11:03:49;3.83;;;1.73;;
74892;SDS011;63446;56.272;43.922;2023-08-06T11:06:17;5.97;;;2.00;;
74892;SDS011;63446;56.272;43.922;2023-08-06T11:08:50;5.35;;;2.05;;
74892;SDS011;63446;56.272;43.922;2023-08-06T11:11:17;6.57;;;2.00;;
74892;SDS011;63446;56.272;43.922;2023-08-06T11:13:44;5.27;;;1.83;;
74892;SDS011;63446;56.272;43.922;2023-08-06T11:16:14;3.38;;;1.73;;
74892;SDS011;63446;56.272;43.922;2023-08-06T11:18:42;4.47;;;2.30;;
74892;SDS011;63446;56.272;43.922;2023-08-06T11:21:08;3.25;;;1.73;;
74892;SDS011;63446;56.272;43.922;2023-08-06T11:23:34;4.65;;;1.90;;
74892;SDS011;63446;56.272;43.922;2023-08-06T11:26:01;3.50;;;1.73;;
74892;SDS011;63446;56.272;43.922;2023-08-06T11:28:28;3.75;;;1.88;;
74892;SDS011;63446;56.272;43.922;2023-08-06T11:30:55;3.95;;;1.90;;
74892;SDS011;63446;56.272;43.922;2023-08-06T11:33:23;5.93;;;2.10;;
74892;SDS011;63446;56.272;43.922;2023-08-06T11:35:51;3.50;;;1.77;;
74892;SDS011;63446;56.272;43.922;2023-08-06T11:38:17;6.53;;;1.63;;
74892;SDS011;63446;56.272;43.922;2023-08-06T11:40:44;6.90;;;2.10;;
74892;SDS011;63446;56.272;43.922;2023-08-06T11:43:14;5.13;;;1.92;;
74892;SDS011;63446;56.272;43.922;2023-08-06T11:45:40;7.32;;;1.77;;
74892;SDS011;63446;56.272;43.922;2023-08-06T11:48:07;5.32;;;1.88;;
74892;SDS011;63446;56.272;43.922;2023-08-06T11:50:37;3.87;;;1.77;;
74892;SDS011;63446;56.272;43.922;2023-08-06T11:53:06;5.45;;;2.00;;
74892;SDS011;63446;56.272;43.922;2023-08-06T11:55:33;7.20;;;2.00;;
74892;SDS011;63446;56.272;43.922;2023-08-06T11:58:03;5.03;;;2.20;;
74892;SDS011;63446;56.272;43.922;2023-08-06T12:00:33;3.53;;;1.77;;
74892;SDS011;63446;56.272;43.922;2023-08-06T12:02:59;5.33;;;1.80;;
74892;SDS011;63446;56.272;43.922;2023-08-06T12:05:29;5.32;;;2.00;;
74892;SDS011;63446;56.272;43.922;2023-08-06T12:07:57;4.68;;;1.70;;
74892;SDS011;63446;56.272;43.922;2023-08-06T12:10:24;3.97;;;2.08;;
74892;SDS011;63446;56.272;43.922;2023-08-06T12:12:51;4.13;;;2.13;;
74892;SDS011;63446;56.272;43.922;2023-08-06T12:15:17;4.37;;;2.50;;
74892;SDS011;63446;56.272;43.922;2023-08-06T12:17:44;6.40;;;2.40;;
74892;SDS011;63446;56.272;43.922;2023-08-06T12:20:10;4.85;;;2.50;;
74892;SDS011;63446;56.272;43.922;2023-08-06T12:22:36;5.38;;;2.60;;
74892;SDS011;63446;56.272;43.922;2023-08-06T12:27:37;4.05;;;2.28;;
74892;SDS011;63446;56.272;43.922;2023-08-06T12:30:04;6.50;;;2.03;;
74892;SDS011;63446;56.272;43.922;2023-08-06T12:32:35;4.97;;;2.00;;
74892;SDS011;63446;56.272;43.922;2023-08-06T12:35:02;3.80;;;2.00;;
74892;SDS011;63446;56.272;43.922;2023-08-06T12:37:32;4.33;;;2.00;;
74892;SDS011;63446;56.272;43.922;2023-08-06T12:39:59;5.55;;;2.30;;
74892;SDS011;63446;56.272;43.922;2023-08-06T12:42:24;4.38;;;2.20;;
74892;SDS011;63446;56.272;43.922;2023-08-06T12:44:51;4.40;;;2.20;;
74892;SDS011;63446;56.272;43.922;2023-08-06T12:47:17;8.10;;;2.40;;
74892;SDS011;63446;56.272;43.922;2023-08-06T12:49:44;3.83;;;2.08;;
74892;SDS011;63446;56.272;43.922;2023-08-06T12:52:10;4.50;;;2.30;;
74892;SDS011;63446;56.272;43.922;2023-08-06T12:54:38;6.85;;;2.13;;
74892;SDS011;63446;56.272;43.922;2023-08-06T12:57:04;6.67;;;1.87;;
74892;SDS011;63446;56.272;43.922;2023-08-06T12:59:31;5.97;;;1.83;;
74892;SDS011;63446;56.272;43.922;2023-08-06T13:02:02;4.82;;;2.30;;
74892;SDS011;63446;56.272;43.922;2023-08-06T13:04:29;5.13;;;1.92;;
74892;SDS011;63446;56.272;43.922;2023-08-06T13:06:55;5.20;;;2.10;;
74892;SDS011;63446;56.272;43.922;2023-08-06T13:09:21;6.03;;;2.22;;
74892;SDS011;63446;56.272;43.922;2023-08-06T13:11:47;5.88;;;2.20;;
74892;SDS011;63446;56.272;43.922;2023-08-06T13:14:17;5.05;;;1.90;;
74892;SDS011;63446;56.272;43.922;2023-08-06T13:16:43;4.13;;;1.93;;
74892;SDS011;63446;56.272;43.922;2023-08-06T13:19:10;4.20;;;1.70;;
74892;SDS011;63446;56.272;43.922;2023-08-06T13:24:08;7.63;;;2.40;;
74892;SDS011;63446;56.272;43.922;2023-08-06T13:26:35;3.67;;;1.92;;
74892;SDS011;63446;56.272;43.922;2023-08-06T13:29:01;4.73;;;2.23;;
74892;SDS011;63446;56.272;43.922;2023-08-06T13:31:28;4.40;;;2.25;;
74892;SDS011;63446;56.272;43.922;2023-08-06T13:33:54;5.85;;;2.05;;
74892;SDS011;63446;56.272;43.922;2023-08-06T13:36:24;4.90;;;2.00;;
74892;SDS011;63446;56.272;43.922;2023-08-06T13:38:54;4.43;;;1.90;;
74892;SDS011;63446;56.272;43.922;2023-08-06T13:41:20;4.80;;;1.90;;
74892;SDS011;63446;56.272;43.922;2023-08-06T13:43:46;7.18;;;2.22;;
74892;SDS011;63446;56.272;43.922;2023-08-06T13:46:12;8.13;;;2.00;;
74892;SDS011;63446;56.272;43.922;2023-08-06T13:48:45;3.92;;;1.73;;
74892;SDS011;63446;56.272;43.922;2023-08-06T13:51:12;4.43;;;1.77;;
74892;SDS011;63446;56.272;43.922;2023-08-06T13:53:40;5.68;;;2.20;;
74892;SDS011;63446;56.272;43.922;2023-08-06T13:56:07;6.63;;;1.92;;
74892;SDS011;63446;56.272;43.922;2023-08-06T13:58:38;8.88;;;3.38;;
74892;SDS011;63446;56.272;43.922;2023-08-06T14:01:04;5.72;;;2.30;;
74892;SDS011;63446;56.272;43.922;2023-08-06T14:03:30;5.47;;;2.30;;
74892;SDS011;63446;56.272;43.922;2023-08-06T14:05:56;7.20;;;4.10;;
74892;SDS011;63446;56.272;43.922;2023-08-06T14:08:23;8.77;;;4.25;;
74892;SDS011;63446;56.272;43.922;2023-08-06T14:10:51;6.20;;;2.10;;
74892;SDS011;63446;56.272;43.922;2023-08-06T14:13:18;4.35;;;2.03;;
74892;SDS011;63446;56.272;43.922;2023-08-06T14:15:44;4.85;;;1.90;;
74892;SDS011;63446;56.272;43.922;2023-08-06T14:18:13;4.28;;;2.00;;
74892;SDS011;63446;56.272;43.922;2023-08-06T14:20:43;5.20;;;2.10;;
74892;SDS011;63446;56.272;43.922;2023-08-06T14:23:10;5.40;;;2.20;;
74892;SDS011;63446;56.272;43.922;2023-08-06T14:25:37;3.53;;;1.70;;
74892;SDS011;63446;56.272;43.922;2023-08-06T14:28:04;4.38;;;2.17;;
74892;SDS011;63446;56.272;43.922;2023-08-06T14:30:32;4.38;;;2.00;;
74892;SDS011;63446;56.272;43.922;2023-08-06T14:32:59;6.20;;;1.70;;
74892;SDS011;63446;56.272;43.922;2023-08-06T14:35:26;3.67;;;1.93;;
74892;SDS011;63446;56.272;43.922;2023-08-06T14:37:52;5.78;;;2.05;;
74892;SDS011;63446;56.272;43.922;2023-08-06T14:40:17;4.35;;;2.00;;